createdAt,value
2023-02-06T00:00:58.076Z,40.22
2023-02-06T00:04:00.201Z,40.06
2023-02-06T00:07:02.378Z,40.10
2023-02-06T00:10:05.002Z,40.44
2023-02-06T00:13:07.097Z,40.31
2023-02-06T00:16:20.133Z,40.50
2023-02-06T00:19:22.343Z,39.90
2023-02-06T00:22:24.571Z,40.04
2023-02-06T00:25:26.736Z,40.81
2023-02-06T00:28:28.881Z,40.37
2023-02-06T00:31:32.669Z,40.25
2023-02-06T00:34:34.835Z,40.54
2023-02-06T00:37:39.270Z,40.23
2023-02-06T00:40:41.430Z,40.65
2023-02-06T00:43:43.703Z,40.35
2023-02-06T00:46:45.992Z,41.21
2023-02-06T00:49:48.251Z,41.90
2023-02-06T00:52:53.280Z,41.50
2023-02-06T00:55:55.457Z,41.79
2023-02-06T00:58:57.713Z,42.03
2023-02-06T01:01:59.895Z,42.26
2023-02-06T01:05:02.485Z,41.86
2023-02-06T01:08:04.908Z,41.86
2023-02-06T01:11:17.115Z,42.36
2023-02-06T01:14:19.260Z,42.32
2023-02-06T01:17:21.371Z,43.11
2023-02-06T01:20:23.899Z,43.17
2023-02-06T01:23:26.104Z,43.02
2023-02-06T01:26:28.397Z,43.00
2023-02-06T01:29:31.774Z,43.32
2023-02-06T01:32:38.086Z,43.93
2023-02-06T01:35:40.205Z,44.51
2023-02-06T01:38:43.348Z,43.98
2023-02-06T01:41:46.507Z,43.96
2023-02-06T01:44:48.620Z,43.23
2023-02-06T01:47:53.950Z,43.32
2023-02-06T01:50:56.956Z,43.12
2023-02-06T01:54:01.519Z,43.10
2023-02-06T01:57:06.811Z,43.13
2023-02-06T02:00:10.490Z,42.75
2023-02-06T02:03:15.564Z,42.59
2023-02-06T02:06:21.662Z,42.71
2023-02-06T02:09:23.912Z,42.57
2023-02-06T02:12:26.636Z,42.77
2023-02-06T02:15:57.987Z,43.30
2023-02-06T02:19:28.117Z,42.97
2023-02-06T02:22:36.576Z,42.53
2023-02-06T02:26:18.152Z,42.46
2023-02-06T02:29:35.534Z,42.23
2023-02-06T02:32:59.700Z,42.79
2023-02-06T02:36:26.778Z,43.52
2023-02-06T02:39:41.604Z,43.27
2023-02-06T02:42:53.854Z,43.07
2023-02-06T02:46:18.082Z,42.61
2023-02-06T02:49:23.594Z,43.48
2023-02-06T02:52:25.866Z,43.14
2023-02-06T02:55:28.026Z,43.02
2023-02-06T02:58:34.404Z,43.54
2023-02-06T03:01:49.880Z,43.17
2023-02-06T03:04:56.303Z,43.71
2023-02-06T03:08:46.954Z,43.11
2023-02-06T03:12:01.584Z,42.67
2023-02-06T03:15:25.717Z,41.49
2023-02-06T03:18:41.233Z,42.05
2023-02-06T03:21:44.851Z,41.67
2023-02-06T03:24:47.518Z,41.58
2023-02-06T03:27:50.820Z,41.84
2023-02-06T03:30:55.890Z,42.12
2023-02-06T03:34:20.255Z,41.67
2023-02-06T03:37:23.404Z,41.81
2023-02-06T03:40:26.829Z,40.86
2023-02-06T03:43:32.292Z,41.53
2023-02-06T03:46:35.623Z,41.39
2023-02-06T03:49:39.534Z,41.81
2023-02-06T03:52:49.877Z,41.83
2023-02-06T03:55:54.746Z,41.96
2023-02-06T03:59:00.025Z,41.46
2023-02-06T04:02:03.861Z,41.36
2023-02-06T04:05:06.929Z,41.02
2023-02-06T04:08:09.885Z,40.21
2023-02-06T04:11:12.108Z,41.25
2023-02-06T04:14:14.301Z,40.63
2023-02-06T04:17:31.370Z,41.31
2023-02-06T04:20:40.978Z,41.12
2023-02-06T04:23:43.237Z,41.50
2023-02-06T04:26:45.458Z,41.53
2023-02-06T04:29:47.720Z,41.88
2023-02-06T04:32:50.046Z,41.31
2023-02-06T04:35:52.291Z,41.84
2023-02-06T04:38:54.431Z,41.51
2023-02-06T04:41:56.733Z,42.34
2023-02-06T04:44:58.999Z,41.56
2023-02-06T04:48:01.192Z,41.78
2023-02-06T04:51:03.705Z,41.74
2023-02-06T04:54:06.243Z,42.13
2023-02-06T04:57:08.422Z,41.52
2023-02-06T05:00:11.222Z,42.14
2023-02-06T05:03:13.502Z,42.57
2023-02-06T05:06:16.612Z,42.15
2023-02-06T05:09:18.751Z,42.61
2023-02-06T05:12:20.949Z,42.11
2023-02-06T05:15:23.120Z,42.86
2023-02-06T05:18:25.792Z,42.78
2023-02-06T05:21:28.631Z,42.40
2023-02-06T05:24:30.997Z,42.93
2023-02-06T05:27:33.281Z,42.72
2023-02-06T05:30:35.621Z,42.62
2023-02-06T05:33:39.899Z,42.61
2023-02-06T05:36:46.845Z,42.72
2023-02-06T05:39:53.183Z,42.28
2023-02-06T05:43:02.266Z,42.28
2023-02-06T05:46:05.719Z,42.70
2023-02-06T05:49:07.964Z,42.11
2023-02-06T05:55:28.172Z,42.28
2023-02-06T05:58:30.498Z,42.86
2023-02-06T06:01:32.899Z,43.34
2023-02-06T06:04:35.156Z,42.51
2023-02-06T06:07:37.421Z,42.57
2023-02-06T06:10:39.985Z,42.46
2023-02-06T06:13:42.227Z,42.39
2023-02-06T06:16:44.480Z,43.07
2023-02-06T06:19:46.754Z,42.68
2023-02-06T06:22:48.963Z,43.19
2023-02-06T06:25:51.128Z,42.81
2023-02-06T06:28:53.353Z,42.89
2023-02-06T06:31:55.669Z,42.96
2023-02-06T06:34:57.834Z,43.38
2023-02-06T06:38:00.100Z,43.45
2023-02-06T06:41:02.429Z,43.22
2023-02-06T06:44:04.771Z,43.62
2023-02-06T06:47:06.976Z,42.68
2023-02-06T06:50:09.512Z,42.48
2023-02-06T06:53:11.703Z,42.13
2023-02-06T06:56:14.753Z,41.96
2023-02-06T06:59:17.018Z,42.32
2023-02-06T07:02:29.077Z,41.45
2023-02-06T07:05:34.643Z,41.88
2023-02-06T07:08:42.171Z,41.93
2023-02-06T07:11:44.503Z,41.55
2023-02-06T07:14:47.735Z,41.82
2023-02-06T07:17:49.955Z,41.93
2023-02-06T07:20:52.140Z,41.82
2023-02-06T07:23:54.539Z,41.35
2023-02-06T07:26:57.763Z,41.98
2023-02-06T07:30:00.022Z,41.48
2023-02-06T07:33:05.017Z,42.34
2023-02-06T07:36:11.303Z,41.96
2023-02-06T07:39:13.469Z,41.61
2023-02-06T07:42:15.855Z,41.90
2023-02-06T07:45:27.166Z,42.02
2023-02-06T07:48:30.065Z,41.33
2023-02-06T07:51:32.472Z,42.33
2023-02-06T07:54:36.655Z,41.92
2023-02-06T07:57:38.938Z,41.56
2023-02-06T08:00:43.706Z,41.03
2023-02-06T08:03:49.748Z,40.82
2023-02-06T08:06:51.944Z,41.18
2023-02-06T08:09:54.341Z,41.23
2023-02-06T08:12:59.849Z,41.74
2023-02-06T08:16:13.010Z,41.10
2023-02-06T08:19:15.183Z,41.23
2023-02-06T08:22:17.420Z,41.29
2023-02-06T08:25:19.637Z,41.30
2023-02-06T08:28:21.864Z,41.51
2023-02-06T08:31:31.069Z,41.18
2023-02-06T08:34:33.414Z,40.12
2023-02-06T08:37:35.554Z,41.22
2023-02-06T08:40:37.711Z,39.78
2023-02-06T08:43:39.930Z,40.03
2023-02-06T08:46:44.080Z,39.90
2023-02-06T08:49:46.766Z,39.69
2023-02-06T08:52:49.009Z,37.58
2023-02-06T08:55:58.228Z,38.86
2023-02-06T08:59:02.183Z,38.69
2023-02-06T09:02:06.053Z,38.59
2023-02-06T09:05:08.766Z,38.50
2023-02-06T09:08:11.226Z,39.26
2023-02-06T09:11:18.461Z,38.22
2023-02-06T09:14:21.000Z,39.27
2023-02-06T09:17:23.131Z,40.24
2023-02-06T09:20:29.563Z,40.17
2023-02-06T09:23:31.997Z,39.59
2023-02-06T09:26:44.714Z,39.22
2023-02-06T09:29:52.497Z,38.75
2023-02-06T09:32:54.852Z,39.22
2023-02-06T09:36:11.885Z,39.07
2023-02-06T09:39:14.029Z,39.42
2023-02-06T09:42:31.825Z,38.95
2023-02-06T09:45:34.551Z,38.28
2023-02-06T09:48:40.395Z,38.36
2023-02-06T09:52:30.607Z,37.90
2023-02-06T09:55:45.304Z,38.22
2023-02-06T09:58:53.834Z,37.82
2023-02-06T10:02:40.117Z,37.51
2023-02-06T10:06:19.890Z,38.41
2023-02-06T10:09:38.162Z,38.77
2023-02-06T10:13:01.418Z,38.43
2023-02-06T10:16:13.641Z,38.46
2023-02-06T10:19:25.320Z,38.04
2023-02-06T10:22:39.154Z,37.32
2023-02-06T10:26:03.980Z,36.84
2023-02-06T10:29:16.915Z,36.33
2023-02-06T10:32:29.054Z,36.45
2023-02-06T10:36:12.980Z,36.65
2023-02-06T10:39:30.464Z,36.59
2023-02-06T10:42:47.045Z,35.33
2023-02-06T10:45:52.385Z,36.54
2023-02-06T10:49:14.320Z,35.63
2023-02-06T10:52:28.829Z,36.47
2023-02-06T10:56:00.109Z,35.89
2023-02-06T10:59:06.858Z,36.62
2023-02-06T11:02:29.126Z,36.14
2023-02-06T11:05:34.359Z,35.86
2023-02-06T11:08:43.893Z,35.57
2023-02-06T11:11:53.603Z,36.08
2023-02-06T11:14:57.142Z,35.94
2023-02-06T11:18:04.777Z,34.49
2023-02-06T11:21:16.478Z,35.74
2023-02-06T11:24:26.698Z,35.37
2023-02-06T11:27:30.821Z,35.50
2023-02-06T11:30:37.507Z,35.35
2023-02-06T11:33:54.637Z,34.22
2023-02-06T11:37:27.354Z,33.70
2023-02-06T11:40:29.954Z,33.71
2023-02-06T11:43:35.320Z,34.84
2023-02-06T11:46:43.068Z,33.88
2023-02-06T11:49:46.389Z,32.23
2023-02-06T11:52:49.226Z,32.55
2023-02-06T11:56:07.108Z,32.54
2023-02-06T11:59:23.259Z,32.73
2023-02-06T12:02:34.813Z,30.42
2023-02-06T12:05:40.272Z,30.44
2023-02-06T12:08:50.730Z,32.07
2023-02-06T12:12:08.049Z,31.59
2023-02-06T12:15:39.920Z,30.18
2023-02-06T12:18:42.261Z,31.17
2023-02-06T12:21:54.442Z,30.47
2023-02-06T12:24:57.404Z,30.38
2023-02-06T12:28:18.960Z,30.43
2023-02-06T12:31:27.152Z,29.62
2023-02-06T12:34:53.992Z,30.33
2023-02-06T12:38:07.189Z,30.44
2023-02-06T12:41:35.448Z,28.47
2023-02-06T12:44:54.919Z,28.45
2023-02-06T12:48:22.987Z,29.25
2023-02-06T12:51:33.042Z,29.21
2023-02-06T12:54:47.067Z,28.15
2023-02-06T12:57:49.744Z,28.30
2023-02-06T13:01:17.415Z,27.99
2023-02-06T13:04:32.393Z,27.74
2023-02-06T13:07:48.961Z,26.81
2023-02-06T13:11:02.088Z,27.26
2023-02-06T13:14:22.288Z,26.78
2023-02-06T13:17:26.584Z,27.52
2023-02-06T13:20:29.027Z,26.85
2023-02-06T13:23:31.157Z,26.72
2023-02-06T13:27:04.124Z,26.36
2023-02-06T13:30:31.543Z,26.90
2023-02-06T13:33:43.142Z,27.02
2023-02-06T13:36:50.266Z,26.75
2023-02-06T13:40:22.512Z,27.26
2023-02-06T13:43:27.483Z,26.88
2023-02-06T13:46:57.572Z,27.15
2023-02-06T13:50:29.039Z,26.82
2023-02-06T13:54:02.202Z,26.03
2023-02-06T13:57:19.455Z,27.33
2023-02-06T14:00:28.861Z,27.11
2023-02-06T14:03:34.051Z,26.88
2023-02-06T14:06:56.721Z,25.99
2023-02-06T14:10:05.290Z,26.48
2023-02-06T14:13:45.302Z,26.35
2023-02-06T14:16:57.617Z,26.08
2023-02-06T14:20:18.426Z,26.35
2023-02-06T14:24:30.514Z,25.92
2023-02-06T14:27:59.878Z,26.48
2023-02-06T14:31:07.954Z,26.08
2023-02-06T14:34:39.008Z,25.35
2023-02-06T14:38:05.855Z,25.63
2023-02-06T14:41:08.258Z,26.16
2023-02-06T14:44:13.679Z,26.53
2023-02-06T14:47:24.817Z,25.83
2023-02-06T14:50:35.513Z,25.90
2023-02-06T14:53:39.885Z,26.15
2023-02-06T14:56:42.935Z,26.09
2023-02-06T15:00:04.474Z,25.79
2023-02-06T15:03:16.921Z,24.41
2023-02-06T15:06:40.518Z,25.02
2023-02-06T15:09:46.528Z,25.16
2023-02-06T15:12:53.250Z,25.17
2023-02-06T15:15:57.023Z,26.47
2023-02-06T15:19:13.225Z,26.66
2023-02-06T15:22:29.875Z,26.96
2023-02-06T15:25:43.926Z,27.27
2023-02-06T15:28:46.345Z,27.50
2023-02-06T15:31:50.105Z,28.07
2023-02-06T15:34:52.424Z,28.63
2023-02-06T15:37:54.938Z,28.89
2023-02-06T15:41:00.600Z,29.46
2023-02-06T15:44:10.121Z,30.33
2023-02-06T15:47:14.823Z,30.64
2023-02-06T15:50:28.496Z,31.18
2023-02-06T15:53:41.435Z,31.33
2023-02-06T15:56:48.421Z,31.39
2023-02-06T15:59:50.713Z,31.75
2023-02-06T16:03:05.219Z,32.26
2023-02-06T16:06:14.974Z,32.22
2023-02-06T16:09:21.528Z,32.89
2023-02-06T16:12:23.778Z,32.72
2023-02-06T16:15:35.005Z,33.41
2023-02-06T16:18:38.948Z,33.67
2023-02-06T16:21:43.474Z,33.66
2023-02-06T16:24:46.052Z,34.13
2023-02-06T16:27:51.238Z,33.61
2023-02-06T16:31:04.802Z,34.25
2023-02-06T16:34:21.352Z,34.45
2023-02-06T16:37:26.014Z,34.42
2023-02-06T16:40:28.275Z,35.09
2023-02-06T16:43:30.994Z,34.80
2023-02-06T16:46:33.465Z,35.40
2023-02-06T16:49:35.749Z,35.10
2023-02-06T16:52:41.528Z,35.11
2023-02-06T16:55:43.934Z,35.25
2023-02-06T16:58:46.588Z,35.07
2023-02-06T17:01:48.974Z,35.56
2023-02-06T17:04:51.245Z,35.74
2023-02-06T17:07:54.028Z,36.48
2023-02-06T17:10:56.169Z,36.00
2023-02-06T17:13:58.488Z,36.09
2023-02-06T17:17:02.107Z,37.05
2023-02-06T17:20:05.030Z,37.00
2023-02-06T17:23:07.701Z,36.51
2023-02-06T17:26:15.337Z,36.77
2023-02-06T17:29:17.581Z,36.83
2023-02-06T17:32:22.940Z,37.57
2023-02-06T17:35:25.417Z,37.03
2023-02-06T17:38:27.602Z,36.40
2023-02-06T17:41:31.304Z,37.41
2023-02-06T17:44:33.450Z,37.00
2023-02-06T17:47:35.596Z,37.26
2023-02-06T17:50:40.698Z,37.00
2023-02-06T17:53:42.881Z,37.08
2023-02-06T17:56:45.053Z,37.51
2023-02-06T17:59:47.232Z,37.26
2023-02-06T18:02:53.954Z,37.24
2023-02-06T18:06:00.482Z,37.60
2023-02-06T18:09:02.858Z,37.56
2023-02-06T18:12:05.120Z,37.30
2023-02-06T18:15:08.460Z,37.22
2023-02-06T18:18:10.604Z,37.29
2023-02-06T18:21:12.865Z,37.37
2023-02-06T18:24:15.120Z,37.91
2023-02-06T18:27:18.697Z,38.30
2023-02-06T18:30:21.101Z,38.11
2023-02-06T18:33:23.513Z,38.00
2023-02-06T18:36:26.432Z,38.10
2023-02-06T18:39:28.757Z,38.30
2023-02-06T18:42:49.482Z,38.31
2023-02-06T18:45:51.648Z,38.12
2023-02-06T18:48:54.925Z,38.09
2023-02-06T18:51:57.151Z,37.86
2023-02-06T18:54:59.343Z,38.01
2023-02-06T18:58:02.658Z,38.30
2023-02-06T19:01:12.770Z,38.96
2023-02-06T19:04:15.007Z,39.12
2023-02-06T19:07:17.291Z,38.81
2023-02-06T19:10:20.698Z,38.12
2023-02-06T19:13:22.844Z,38.80
2023-02-06T19:16:26.468Z,38.29
2023-02-06T19:19:28.653Z,38.86
2023-02-06T19:22:37.005Z,38.06
2023-02-06T19:25:40.832Z,38.53
2023-02-06T19:28:43.546Z,38.31
2023-02-06T19:31:45.762Z,38.16
2023-02-06T19:34:47.994Z,38.66
2023-02-06T19:37:51.414Z,39.05
2023-02-06T19:40:53.742Z,39.03
2023-02-06T19:43:57.219Z,39.09
2023-02-06T19:47:00.137Z,38.82
2023-02-06T19:50:02.370Z,39.13
2023-02-06T19:53:05.167Z,39.15
2023-02-06T19:56:07.648Z,39.42
2023-02-06T19:59:18.196Z,38.71
2023-02-06T20:02:20.539Z,39.47
2023-02-06T20:05:26.186Z,39.67
2023-02-06T20:08:28.363Z,40.05
2023-02-06T20:11:31.937Z,40.08
2023-02-06T20:14:34.075Z,39.43
2023-02-06T20:17:36.185Z,40.29
2023-02-06T20:20:38.623Z,39.59
2023-02-06T20:23:41.720Z,39.80
2023-02-06T20:26:44.422Z,40.16
2023-02-06T20:29:46.688Z,39.91
2023-02-06T20:32:48.927Z,40.02
2023-02-06T20:35:51.080Z,40.42
2023-02-06T20:38:55.562Z,39.97
2023-02-06T20:41:57.761Z,39.94
2023-02-06T20:44:59.937Z,40.88
2023-02-06T20:48:02.184Z,40.47
2023-02-06T20:51:05.482Z,40.22
2023-02-06T20:54:07.641Z,40.06
2023-02-06T20:57:09.866Z,40.43
2023-02-06T21:00:13.144Z,40.36
2023-02-06T21:03:15.479Z,40.22
2023-02-06T21:06:18.108Z,40.29
2023-02-06T21:09:20.280Z,40.64
2023-02-06T21:12:22.413Z,40.47
2023-02-06T21:15:24.762Z,40.86
2023-02-06T21:18:29.404Z,40.71
2023-02-06T21:21:32.208Z,40.73
2023-02-06T21:24:34.328Z,41.17
2023-02-06T21:27:37.604Z,40.28
2023-02-06T21:30:40.168Z,41.31
2023-02-06T21:33:43.080Z,40.97
2023-02-06T21:36:45.623Z,40.72
2023-02-06T21:39:48.224Z,41.10
2023-02-06T21:42:50.475Z,40.83
2023-02-06T21:45:52.661Z,40.64
2023-02-06T21:48:55.040Z,40.56
2023-02-06T21:52:00.569Z,41.17
2023-02-06T21:55:02.795Z,40.49
2023-02-06T21:58:04.938Z,40.22
2023-02-06T22:01:08.904Z,40.66
2023-02-06T22:04:11.614Z,41.40
2023-02-06T22:07:13.820Z,41.06
2023-02-06T22:10:16.086Z,41.34
2023-02-06T22:13:18.342Z,41.33
2023-02-06T22:16:22.238Z,40.82
2023-02-06T22:19:24.493Z,41.35
2023-02-06T22:22:26.719Z,41.64
2023-02-06T22:25:28.860Z,41.61
2023-02-06T22:28:31.078Z,42.23
2023-02-06T22:31:35.245Z,41.78
2023-02-06T22:34:39.592Z,41.97
2023-02-06T22:37:44.442Z,42.07
2023-02-06T22:40:46.788Z,41.54
2023-02-06T22:43:49.983Z,41.57
2023-02-06T22:46:53.159Z,42.00
2023-02-06T22:49:55.349Z,41.66
2023-02-06T22:53:16.075Z,41.76
2023-02-06T22:56:31.667Z,41.79
2023-02-06T22:59:33.929Z,41.77
2023-02-06T23:02:36.202Z,41.87
2023-02-06T23:05:38.658Z,42.34
2023-02-06T23:08:42.216Z,41.94
2023-02-06T23:11:45.161Z,42.41
2023-02-06T23:14:50.472Z,42.81
2023-02-06T23:17:52.839Z,43.05
2023-02-06T23:20:59.740Z,43.27
2023-02-06T23:24:02.034Z,43.25
2023-02-06T23:27:04.220Z,43.28
2023-02-06T23:30:06.806Z,43.28
2023-02-06T23:33:09.031Z,43.30
2023-02-06T23:36:16.666Z,42.81
2023-02-06T23:39:18.996Z,43.58
2023-02-06T23:42:21.128Z,43.70
2023-02-06T23:45:23.267Z,43.26
2023-02-06T23:48:25.491Z,43.69
2023-02-06T23:51:27.860Z,43.87
2023-02-06T23:54:30.052Z,43.97
2023-02-06T23:57:35.154Z,43.36
